createdAt,value
2019-03-04T00:00:15.541Z,59.95
2019-03-04T00:01:15.562Z,59.33
2019-03-04T00:02:15.544Z,60.06
2019-03-04T00:03:15.543Z,59.99
2019-03-04T00:04:15.550Z,58.39
2019-03-04T00:05:15.489Z,59.33
2019-03-04T00:06:15.490Z,58.70
2019-03-04T00:07:15.479Z,58.29
2019-03-04T00:08:15.470Z,58.29
2019-03-04T00:09:15.454Z,57.04
2019-03-04T00:10:15.477Z,57.35
2019-03-04T00:11:15.419Z,56.10
2019-03-04T00:12:15.410Z,57.46
2019-03-04T00:13:15.400Z,57.95
2019-03-04T00:14:15.425Z,58.29
2019-03-04T00:15:15.418Z,59.12
2019-03-04T00:16:15.420Z,58.32
2019-03-04T00:17:15.360Z,58.00
2019-03-04T00:18:15.360Z,58.42
2019-03-04T00:19:15.336Z,55.58
2019-03-04T00:20:15.336Z,58.29
2019-03-04T00:21:15.357Z,58.08
2019-03-04T00:22:15.304Z,56.49
2019-03-04T00:23:15.291Z,57.98
2019-03-04T00:24:15.293Z,58.70
2019-03-04T00:25:15.270Z,59.05
2019-03-04T00:26:15.259Z,57.90
2019-03-04T00:27:15.317Z,57.90
2019-03-04T00:28:15.299Z,58.32
2019-03-04T00:29:15.226Z,58.11
2019-03-04T00:30:15.220Z,57.38
2019-03-04T00:31:15.206Z,56.13
2019-03-04T00:32:15.198Z,56.10
2019-03-04T00:33:15.226Z,56.13
2019-03-04T00:34:15.174Z,59.25
2019-03-04T00:35:15.181Z,60.19
2019-03-04T00:36:15.155Z,60.71
2019-03-04T00:37:15.146Z,60.09
2019-03-04T00:38:15.149Z,58.53
2019-03-04T00:39:15.168Z,58.53
2019-03-04T00:40:15.115Z,59.88
2019-03-04T00:41:15.100Z,59.07
2019-03-04T00:42:15.094Z,60.11
2019-03-04T00:43:15.088Z,61.23
2019-03-04T00:44:15.069Z,61.88
2019-03-04T00:45:15.115Z,62.62
2019-03-04T00:46:15.045Z,58.53
2019-03-04T00:47:15.050Z,57.56
2019-03-04T00:48:15.033Z,52.75
2019-03-04T00:49:15.038Z,53.45
2019-03-04T00:50:15.027Z,48.13
2019-03-04T00:51:15.046Z,50.83
2019-03-04T00:52:14.989Z,56.05
2019-03-04T00:53:14.970Z,56.60
2019-03-04T00:54:14.976Z,55.24
2019-03-04T00:55:14.977Z,57.85
2019-03-04T00:56:14.971Z,58.18
2019-03-04T00:57:14.972Z,58.63
2019-03-04T00:58:14.938Z,58.00
2019-03-04T00:59:14.905Z,57.17
2019-03-04T01:00:14.892Z,56.10
2019-03-04T01:01:14.895Z,56.52
2019-03-04T01:02:14.870Z,55.58
2019-03-04T01:03:14.900Z,56.10
2019-03-04T01:04:14.852Z,56.93
2019-03-04T01:05:14.844Z,58.21
2019-03-04T01:06:14.841Z,58.42
2019-03-04T01:07:14.882Z,58.32
2019-03-04T01:08:14.860Z,60.19
2019-03-04T01:09:14.807Z,57.90
2019-03-04T01:10:14.837Z,56.96
2019-03-04T01:11:14.787Z,56.31
2019-03-04T01:12:14.771Z,60.06
2019-03-04T01:13:14.756Z,60.30
2019-03-04T01:14:14.739Z,56.31
2019-03-04T01:15:14.820Z,56.81
2019-03-04T01:16:14.766Z,58.29
2019-03-04T01:17:14.713Z,57.77
2019-03-04T01:18:14.709Z,56.93
2019-03-04T01:19:14.693Z,56.41
2019-03-04T01:20:14.716Z,58.81
2019-03-04T01:21:14.670Z,58.63
2019-03-04T01:22:14.658Z,58.73
2019-03-04T01:23:14.661Z,58.42
2019-03-04T01:24:14.646Z,56.31
2019-03-04T01:25:14.629Z,56.21
2019-03-04T01:26:14.653Z,57.04
2019-03-04T01:27:14.613Z,55.79
2019-03-04T01:28:14.610Z,52.77
2019-03-04T01:29:14.604Z,54.33
2019-03-04T01:30:14.576Z,56.41
2019-03-04T01:31:14.563Z,55.69
2019-03-04T01:32:14.590Z,55.92
2019-03-04T01:33:14.621Z,55.38
2019-03-04T01:34:14.571Z,51.31
2019-03-04T01:35:14.519Z,49.01
2019-03-04T01:36:14.545Z,56.08
2019-03-04T01:37:14.495Z,56.10
2019-03-04T01:38:14.547Z,54.85
2019-03-04T01:39:14.519Z,56.93
2019-03-04T01:40:14.475Z,58.50
2019-03-04T01:41:14.506Z,58.21
2019-03-04T01:42:14.454Z,56.52
2019-03-04T01:43:14.427Z,51.63
2019-03-04T01:44:14.435Z,52.87
2019-03-04T01:45:14.426Z,49.11
2019-03-04T01:46:14.397Z,49.63
2019-03-04T01:47:14.443Z,53.38
2019-03-04T01:48:14.392Z,55.48
2019-03-04T01:49:14.374Z,55.27
2019-03-04T01:50:14.367Z,53.50
2019-03-04T01:51:14.360Z,51.42
2019-03-04T01:52:14.336Z,51.09
2019-03-04T01:53:14.360Z,51.31
2019-03-04T01:54:14.317Z,51.09
2019-03-04T01:55:14.309Z,49.52
2019-03-04T01:56:14.294Z,50.87
2019-03-04T01:57:14.287Z,50.56
2019-03-04T01:58:14.273Z,50.04
2019-03-04T01:59:14.299Z,48.17
2019-03-04T02:00:14.266Z,47.65
2019-03-04T02:01:14.290Z,49.01
2019-03-04T02:02:14.236Z,50.77
2019-03-04T02:03:14.234Z,54.21
2019-03-04T02:04:14.216Z,54.44
2019-03-04T02:05:14.209Z,55.30
2019-03-04T02:06:14.194Z,54.36
2019-03-04T02:07:14.228Z,52.28
2019-03-04T02:08:14.184Z,53.74
2019-03-04T02:09:14.168Z,55.19
2019-03-04T02:10:14.185Z,55.71
2019-03-04T02:11:14.175Z,55.51
2019-03-04T02:12:14.133Z,53.63
2019-03-04T02:13:14.166Z,52.25
2019-03-04T02:14:14.092Z,51.10
2019-03-04T02:15:14.088Z,49.44
2019-03-04T02:16:14.084Z,52.23
2019-03-04T02:17:14.075Z,49.55
2019-03-04T02:18:14.069Z,46.19
2019-03-04T02:19:14.094Z,49.42
2019-03-04T02:20:14.040Z,53.16
2019-03-04T02:21:14.020Z,55.58
2019-03-04T02:22:14.011Z,54.13
2019-03-04T02:23:14.016Z,53.16
2019-03-04T02:24:14.013Z,51.73
2019-03-04T02:25:14.020Z,51.00
2019-03-04T02:26:13.963Z,48.27
2019-03-04T02:27:13.962Z,49.19
2019-03-04T02:28:13.952Z,47.94
2019-03-04T02:29:13.950Z,47.83
2019-03-04T02:30:13.929Z,54.39
2019-03-04T02:31:13.961Z,54.31
2019-03-04T02:32:13.921Z,54.23
2019-03-04T02:33:13.933Z,53.19
2019-03-04T02:34:13.886Z,47.96
2019-03-04T02:35:13.884Z,52.46
2019-03-04T02:36:13.893Z,52.44
2019-03-04T02:37:13.901Z,51.53
2019-03-04T02:38:13.867Z,52.98
2019-03-04T02:39:13.840Z,47.96
2019-03-04T02:40:13.829Z,48.17
2019-03-04T02:41:13.827Z,49.52
2019-03-04T02:42:13.799Z,47.24
2019-03-04T02:43:13.854Z,46.59
2019-03-04T02:44:13.782Z,48.79
2019-03-04T02:45:13.792Z,47.86
2019-03-04T02:46:13.769Z,50.90
2019-03-04T02:47:13.751Z,49.01
2019-03-04T02:48:13.733Z,49.13
2019-03-04T02:49:13.784Z,50.07
2019-03-04T02:50:13.714Z,50.59
2019-03-04T02:51:13.769Z,50.38
2019-03-04T02:52:13.740Z,49.36
2019-03-04T02:53:13.696Z,49.13
2019-03-04T02:54:13.663Z,49.99
2019-03-04T02:55:13.663Z,47.36
2019-03-04T02:56:13.675Z,45.80
2019-03-04T02:57:13.652Z,46.01
2019-03-04T02:58:13.702Z,52.77
2019-03-04T02:59:13.625Z,52.28
2019-03-04T03:00:13.601Z,47.56
2019-03-04T03:01:13.592Z,50.69
2019-03-04T03:02:13.594Z,52.90
2019-03-04T03:03:13.638Z,52.28
2019-03-04T03:04:13.597Z,53.21
2019-03-04T03:05:13.557Z,55.74
2019-03-04T03:06:13.550Z,57.09
2019-03-04T03:07:13.530Z,55.53
2019-03-04T03:08:13.532Z,55.94
2019-03-04T03:09:13.565Z,49.88
2019-03-04T03:10:13.550Z,46.63
2019-03-04T03:11:13.524Z,46.72
2019-03-04T03:12:13.476Z,46.22
2019-03-04T03:13:13.531Z,46.09
2019-03-04T03:14:13.462Z,52.15
2019-03-04T03:15:13.458Z,51.44
2019-03-04T03:16:13.483Z,53.11
2019-03-04T03:17:13.420Z,50.40
2019-03-04T03:18:13.410Z,51.44
2019-03-04T03:19:13.455Z,49.36
2019-03-04T03:20:13.420Z,50.07
2019-03-04T03:21:13.435Z,49.13
2019-03-04T03:22:13.392Z,50.59
2019-03-04T03:23:13.358Z,52.80
2019-03-04T03:24:13.377Z,51.15
2019-03-04T03:25:13.358Z,48.19
2019-03-04T03:26:13.330Z,50.92
2019-03-04T03:27:13.312Z,49.65
2019-03-04T03:28:13.310Z,52.36
2019-03-04T03:29:13.294Z,52.90
2019-03-04T03:30:13.399Z,51.65
2019-03-04T03:31:13.283Z,51.13
2019-03-04T03:32:13.267Z,51.26
2019-03-04T03:33:13.269Z,50.84
2019-03-04T03:34:16.058Z,52.30
2019-03-04T03:35:13.307Z,52.28
2019-03-04T03:36:13.209Z,53.63
2019-03-04T03:37:13.201Z,54.38
2019-03-04T03:38:13.210Z,53.53
2019-03-04T03:39:13.192Z,54.05
2019-03-04T03:40:13.232Z,54.25
2019-03-04T03:41:13.174Z,53.84
2019-03-04T03:42:13.148Z,54.05
2019-03-04T03:43:13.160Z,54.15
2019-03-04T03:44:13.161Z,49.86
2019-03-04T03:45:13.526Z,51.31
2019-03-04T03:46:13.106Z,52.15
2019-03-04T03:47:13.106Z,51.31
2019-03-04T03:48:13.089Z,48.09
2019-03-04T03:49:13.093Z,45.88
2019-03-04T03:50:13.081Z,47.34
2019-03-04T03:51:13.103Z,48.69
2019-03-04T03:52:13.066Z,50.56
2019-03-04T03:53:13.034Z,49.52
2019-03-04T03:54:13.035Z,48.17
2019-03-04T03:55:13.124Z,47.13
2019-03-04T03:56:13.003Z,49.73
2019-03-04T03:57:13.041Z,45.76
2019-03-04T03:58:13.003Z,47.83
2019-03-04T03:59:12.967Z,49.40
2019-03-04T04:00:12.959Z,49.40
2019-03-04T04:01:12.948Z,51.09
2019-03-04T04:02:12.976Z,50.77
2019-03-04T04:03:12.960Z,52.33
2019-03-04T04:04:12.967Z,49.32
2019-03-04T04:05:12.932Z,48.33
2019-03-04T04:06:12.927Z,44.59
2019-03-04T04:07:13.543Z,44.15
2019-03-04T04:08:12.885Z,47.50
2019-03-04T04:09:12.865Z,49.16
2019-03-04T04:10:12.900Z,48.98
2019-03-04T04:11:12.834Z,48.15
2019-03-04T04:12:12.824Z,48.25
2019-03-04T04:13:12.825Z,47.94
2019-03-04T04:14:12.811Z,44.90
2019-03-04T04:15:12.798Z,46.44
2019-03-04T04:16:12.852Z,45.82
2019-03-04T04:17:12.786Z,40.30
2019-03-04T04:18:12.769Z,41.94
2019-03-04T04:19:12.764Z,48.19
2019-03-04T04:20:12.747Z,48.52
2019-03-04T04:21:12.734Z,48.94
2019-03-04T04:22:12.771Z,49.04
2019-03-04T04:23:12.719Z,49.56
2019-03-04T04:24:12.704Z,50.21
2019-03-04T04:25:12.707Z,46.44
2019-03-04T04:26:12.714Z,44.57
2019-03-04T04:27:12.675Z,46.13
2019-03-04T04:28:12.718Z,39.36
2019-03-04T04:29:12.641Z,38.30
2019-03-04T04:30:12.637Z,42.23
2019-03-04T04:31:12.638Z,41.50
2019-03-04T04:32:12.661Z,46.92
2019-03-04T04:33:12.601Z,45.78
2019-03-04T04:34:12.603Z,43.18
2019-03-04T04:35:12.591Z,46.71
2019-03-04T04:36:12.566Z,45.90
2019-03-04T04:37:12.565Z,45.69
2019-03-04T04:38:12.592Z,45.90
2019-03-04T04:39:12.547Z,49.77
2019-03-04T04:40:12.564Z,52.18
2019-03-04T04:41:12.536Z,53.64
2019-03-04T04:42:12.504Z,48.36
2019-03-04T04:43:12.503Z,44.47
2019-03-04T04:44:12.523Z,43.93
2019-03-04T04:45:12.485Z,44.64
2019-03-04T04:46:12.465Z,44.01
2019-03-04T04:47:12.491Z,43.80
2019-03-04T04:48:12.509Z,41.00
2019-03-04T04:49:12.434Z,38.68
2019-03-04T04:50:12.422Z,40.34
2019-03-04T04:51:12.421Z,42.00
2019-03-04T04:52:12.396Z,43.48
2019-03-04T04:53:12.414Z,43.72
2019-03-04T04:54:12.435Z,43.93
2019-03-04T04:55:12.386Z,44.05
2019-03-04T04:56:12.361Z,43.32
2019-03-04T04:57:12.352Z,44.18
2019-03-04T04:58:12.340Z,43.97
2019-03-04T04:59:12.326Z,43.55
2019-03-04T05:00:12.351Z,43.76
2019-03-04T05:01:12.337Z,45.94
2019-03-04T05:02:12.294Z,49.79
2019-03-04T05:03:12.285Z,44.80
2019-03-04T05:04:12.268Z,46.48
2019-03-04T05:05:12.266Z,46.48
2019-03-04T05:06:13.065Z,49.08
2019-03-04T05:07:12.245Z,50.23
2019-03-04T05:08:12.225Z,49.11
2019-03-04T05:09:12.226Z,48.17
2019-03-04T05:10:12.208Z,47.52
2019-03-04T05:11:12.195Z,48.98
2019-03-04T05:12:12.236Z,48.46
2019-03-04T05:13:12.202Z,44.71
2019-03-04T05:14:12.180Z,46.15
2019-03-04T05:15:12.149Z,47.71
2019-03-04T05:16:12.193Z,46.86
2019-03-04T05:17:12.173Z,49.06
2019-03-04T05:18:12.130Z,47.50
2019-03-04T05:19:12.138Z,47.71
2019-03-04T05:20:12.102Z,49.90
2019-03-04T05:21:12.104Z,48.23
2019-03-04T05:22:12.113Z,49.16
2019-03-04T05:23:12.090Z,47.19
2019-03-04T05:24:12.083Z,49.68
2019-03-04T05:25:12.059Z,45.92
2019-03-04T05:26:12.085Z,48.10
2019-03-04T05:27:12.034Z,48.41
2019-03-04T05:28:12.061Z,44.68
2019-03-04T05:29:12.045Z,42.16
2019-03-04T05:30:12.005Z,42.56
2019-03-04T05:31:12.008Z,43.29
2019-03-04T05:32:12.010Z,45.57
2019-03-04T05:33:12.000Z,45.69
2019-03-04T05:34:11.956Z,41.52
2019-03-04T05:35:11.944Z,41.21
2019-03-04T05:36:11.933Z,44.53
2019-03-04T05:37:11.933Z,46.92
2019-03-04T05:38:11.921Z,46.63
2019-03-04T05:39:11.950Z,41.33
2019-03-04T05:40:12.003Z,40.07
2019-03-04T05:41:12.012Z,42.77
2019-03-04T05:42:11.890Z,43.18
2019-03-04T05:43:11.848Z,44.03
2019-03-04T05:44:11.902Z,48.19
2019-03-04T05:45:11.835Z,48.21
2019-03-04T05:46:11.821Z,43.32
2019-03-04T05:47:11.840Z,44.55
2019-03-04T05:48:11.801Z,47.67
2019-03-04T05:49:11.786Z,47.89
2019-03-04T05:50:11.826Z,48.10
2019-03-04T05:51:11.759Z,44.05
2019-03-04T05:52:11.768Z,48.41
2019-03-04T05:53:11.778Z,48.72
2019-03-04T05:54:11.730Z,46.86
2019-03-04T05:55:11.722Z,47.89
2019-03-04T05:56:11.754Z,47.48
2019-03-04T05:57:11.713Z,47.48
2019-03-04T05:58:11.689Z,49.25
2019-03-04T05:59:19.329Z,45.92
2019-03-04T06:00:12.664Z,47.38
2019-03-04T06:01:11.664Z,48.21
2019-03-04T06:02:11.692Z,49.79
2019-03-04T06:03:11.701Z,48.13
2019-03-04T06:04:11.626Z,46.98
2019-03-04T06:05:11.620Z,46.88
2019-03-04T06:06:11.607Z,46.44
2019-03-04T06:07:11.594Z,45.07
2019-03-04T06:08:11.655Z,43.30
2019-03-04T06:09:11.591Z,45.69
2019-03-04T06:10:11.565Z,47.06
2019-03-04T06:11:11.548Z,46.36
2019-03-04T06:12:11.537Z,47.40
2019-03-04T06:13:11.536Z,46.44
2019-03-04T06:14:11.561Z,46.46
2019-03-04T06:15:11.528Z,48.02
2019-03-04T06:16:11.498Z,47.61
2019-03-04T06:17:11.485Z,41.54
2019-03-04T06:18:11.475Z,43.49
2019-03-04T06:19:11.473Z,46.63
2019-03-04T06:20:11.505Z,49.04
2019-03-04T06:21:11.469Z,44.76
2019-03-04T06:22:11.435Z,45.88
2019-03-04T06:23:11.421Z,47.67
2019-03-04T06:24:11.415Z,47.89
2019-03-04T06:25:11.405Z,48.10
2019-03-04T06:26:11.427Z,45.92
2019-03-04T06:27:11.410Z,48.00
2019-03-04T06:28:11.378Z,47.81
2019-03-04T06:29:11.368Z,47.69
2019-03-04T06:30:11.348Z,47.79
2019-03-04T06:31:11.348Z,47.92
2019-03-04T06:32:11.369Z,49.04
2019-03-04T06:33:11.335Z,47.79
2019-03-04T06:34:11.305Z,48.13
2019-03-04T06:35:11.297Z,48.31
2019-03-04T06:36:11.284Z,46.34
2019-03-04T06:37:11.341Z,41.83
2019-03-04T06:38:11.299Z,43.29
2019-03-04T06:39:11.254Z,44.32
2019-03-04T06:40:11.260Z,47.75
2019-03-04T06:41:11.230Z,46.53
2019-03-04T06:42:11.232Z,46.19
2019-03-04T06:43:11.260Z,47.46
2019-03-04T06:44:11.194Z,45.69
2019-03-04T06:45:11.191Z,41.00
2019-03-04T06:46:11.233Z,37.23
2019-03-04T06:47:11.163Z,34.41
2019-03-04T06:48:11.187Z,35.86
2019-03-04T06:49:11.195Z,35.95
2019-03-04T06:50:11.132Z,38.63
2019-03-04T06:51:11.123Z,42.69
2019-03-04T06:52:11.131Z,39.58
2019-03-04T06:53:11.101Z,43.10
2019-03-04T06:54:11.096Z,44.96
2019-03-04T06:55:11.131Z,46.44
2019-03-04T06:56:11.069Z,46.13
2019-03-04T06:57:11.054Z,37.49
2019-03-04T06:58:11.047Z,39.56
2019-03-04T06:59:11.035Z,41.01
2019-03-04T07:00:11.064Z,42.98
2019-03-04T07:01:11.044Z,45.78
2019-03-04T07:02:11.015Z,46.50
2019-03-04T07:03:11.014Z,42.98
2019-03-04T07:04:11.054Z,43.27
2019-03-04T07:05:10.974Z,41.41
2019-03-04T07:06:11.001Z,41.51
2019-03-04T07:07:10.979Z,44.31
2019-03-04T07:08:30.438Z,42.34
2019-03-04T07:09:11.940Z,41.93
2019-03-04T07:10:10.930Z,40.97
2019-03-04T07:11:10.950Z,38.80
2019-03-04T07:12:10.906Z,46.66
2019-03-04T07:13:10.886Z,43.99
2019-03-04T07:14:10.882Z,41.08
2019-03-04T07:15:11.206Z,41.49
2019-03-04T07:16:10.869Z,43.25
2019-03-04T07:17:10.916Z,45.73
2019-03-04T07:18:10.844Z,43.46
2019-03-04T07:19:10.840Z,41.16
2019-03-04T07:20:11.070Z,36.08
2019-03-04T07:21:10.803Z,32.51
2019-03-04T07:22:11.159Z,31.73
2019-03-04T07:23:10.792Z,27.48
2019-03-04T07:24:10.769Z,28.27
2019-03-04T07:25:10.762Z,30.31
2019-03-04T07:26:10.746Z,28.28
2019-03-04T07:27:10.763Z,28.82
2019-03-04T07:28:10.768Z,29.68
2019-03-04T07:29:10.808Z,30.10
2019-03-04T07:30:10.709Z,29.49
2019-03-04T07:31:10.701Z,31.68
2019-03-04T07:32:10.731Z,33.02
2019-03-04T07:33:10.719Z,41.50
2019-03-04T07:34:10.657Z,38.49
2019-03-04T07:35:10.651Z,40.86
2019-03-04T07:36:10.637Z,37.04
2019-03-04T07:37:10.670Z,38.49
2019-03-04T07:38:10.624Z,41.60
2019-03-04T07:39:10.627Z,39.95
2019-03-04T07:40:10.626Z,42.30
2019-03-04T07:41:10.595Z,41.97
2019-03-04T07:42:10.587Z,35.87
2019-03-04T07:43:10.615Z,34.78
2019-03-04T07:44:10.555Z,35.36
2019-03-04T07:45:10.586Z,35.30
2019-03-04T07:46:10.534Z,28.59
2019-03-04T07:47:10.522Z,26.63
2019-03-04T07:48:10.524Z,29.92
2019-03-04T07:49:10.553Z,28.16
2019-03-04T07:50:10.490Z,29.26
2019-03-04T07:51:10.480Z,26.48
2019-03-04T07:52:10.581Z,24.01
2019-03-04T07:53:10.458Z,24.61
2019-03-04T07:54:10.470Z,25.00
2019-03-04T07:55:10.454Z,24.30
2019-03-04T07:56:10.433Z,26.67
2019-03-04T07:57:10.431Z,27.78
2019-03-04T07:58:10.465Z,28.80
2019-03-04T07:59:10.403Z,28.36
2019-03-04T08:00:10.407Z,29.28
2019-03-04T08:01:10.368Z,28.08
2019-03-04T08:02:10.370Z,26.90
2019-03-04T08:03:10.347Z,28.77
2019-03-04T08:04:10.398Z,29.06
2019-03-04T08:05:10.357Z,29.05
2019-03-04T08:06:10.324Z,28.93
2019-03-04T08:07:10.358Z,27.31
2019-03-04T08:08:10.312Z,27.29
2019-03-04T08:09:10.289Z,26.89
2019-03-04T08:10:10.284Z,27.09
2019-03-04T08:11:10.266Z,28.71
2019-03-04T08:12:10.290Z,29.13
2019-03-04T08:13:10.250Z,29.43
2019-03-04T08:14:10.230Z,29.50
2019-03-04T08:15:10.218Z,28.77
2019-03-04T08:16:10.212Z,23.75
2019-03-04T08:17:10.233Z,24.26
2019-03-04T08:18:10.188Z,22.55
2019-03-04T08:19:10.189Z,24.26
2019-03-04T08:20:10.164Z,28.86
2019-03-04T08:21:10.149Z,26.11
2019-03-04T08:22:10.227Z,26.82
2019-03-04T08:23:10.313Z,26.16
2019-03-04T08:24:10.128Z,28.41
2019-03-04T08:25:10.152Z,26.26
2019-03-04T08:26:10.110Z,26.44
2019-03-04T08:27:10.138Z,25.51
2019-03-04T08:28:10.076Z,26.71
2019-03-04T08:29:10.065Z,25.15
2019-03-04T08:30:10.053Z,24.24
2019-03-04T08:31:10.043Z,26.37
2019-03-04T08:32:10.039Z,24.63
2019-03-04T08:33:10.024Z,24.75
2019-03-04T08:34:10.008Z,23.74
2019-03-04T08:35:10.026Z,24.45
2019-03-04T08:36:09.995Z,27.23
2019-03-04T08:37:09.978Z,27.14
2019-03-04T08:38:10.016Z,24.83
2019-03-04T08:39:09.955Z,27.25
2019-03-04T08:40:09.946Z,28.15
2019-03-04T08:41:09.940Z,26.51
2019-03-04T08:42:09.924Z,25.28
2019-03-04T08:43:09.912Z,27.42
2019-03-04T08:44:09.954Z,25.28
2019-03-04T08:45:09.892Z,22.73
2019-03-04T08:46:09.879Z,22.85
2019-03-04T08:47:09.895Z,25.09
2019-03-04T08:48:09.893Z,26.04
2019-03-04T08:49:09.853Z,27.97
2019-03-04T08:50:09.890Z,25.20
2019-03-04T08:51:09.844Z,25.49
2019-03-04T08:52:09.841Z,26.03
2019-03-04T08:53:09.806Z,25.92
2019-03-04T08:54:09.822Z,23.03
2019-03-04T08:55:09.779Z,24.04
2019-03-04T08:56:09.821Z,24.85
2019-03-04T08:57:09.763Z,26.18
2019-03-04T08:58:09.752Z,25.16
2019-03-04T08:59:09.769Z,24.77
2019-03-04T09:00:09.734Z,24.16
2019-03-04T09:01:09.758Z,24.65
2019-03-04T09:02:09.708Z,25.04
2019-03-04T09:03:09.696Z,25.45
2019-03-04T09:04:09.681Z,23.71
2019-03-04T09:05:09.693Z,22.88
2019-03-04T09:06:09.668Z,24.18
2019-03-04T09:07:09.721Z,23.68
2019-03-04T09:08:09.648Z,24.93
2019-03-04T09:09:09.637Z,25.14
2019-03-04T09:10:09.620Z,23.81
2019-03-04T09:11:09.629Z,24.01
2019-03-04T09:12:09.659Z,25.02
2019-03-04T09:13:09.589Z,24.01
2019-03-04T09:14:09.577Z,25.54
2019-03-04T09:15:09.566Z,25.05
2019-03-04T09:16:09.585Z,27.93
2019-03-04T09:17:10.699Z,28.21
2019-03-04T09:18:09.537Z,26.42
2019-03-04T09:19:09.576Z,28.56
2019-03-04T09:20:09.516Z,28.15
2019-03-04T09:21:09.553Z,28.16
2019-03-04T09:22:09.493Z,30.11
2019-03-04T09:23:09.493Z,30.41
2019-03-04T09:24:09.466Z,29.39
2019-03-04T09:25:09.457Z,28.54
2019-03-04T09:26:09.495Z,26.72
2019-03-04T09:27:09.440Z,28.74
2019-03-04T09:28:09.420Z,25.98
2019-03-04T09:29:09.461Z,27.59
2019-03-04T09:30:09.405Z,25.97
2019-03-04T09:31:09.393Z,25.97
2019-03-04T09:32:09.452Z,28.40
2019-03-04T09:33:09.368Z,27.08
2019-03-04T09:34:09.359Z,27.91
2019-03-04T09:35:09.382Z,28.11
2019-03-04T09:36:09.340Z,28.62
2019-03-04T09:37:09.362Z,28.14
2019-03-04T09:38:09.317Z,29.23
2019-03-04T09:39:09.307Z,27.20
2019-03-04T09:40:09.311Z,29.02
2019-03-04T09:41:09.296Z,26.28
2019-03-04T09:42:09.316Z,27.00
2019-03-04T09:43:09.260Z,28.05
2019-03-04T09:44:09.257Z,27.93
2019-03-04T09:45:09.238Z,26.75
2019-03-04T09:46:09.268Z,28.17
2019-03-04T09:47:09.277Z,30.20
2019-03-04T09:48:09.207Z,28.88
2019-03-04T09:49:09.211Z,28.77
2019-03-04T09:50:09.183Z,29.87
2019-03-04T09:51:09.198Z,29.65
2019-03-04T09:52:09.202Z,28.72
2019-03-04T09:53:09.175Z,28.62
2019-03-04T09:54:09.161Z,28.11
2019-03-04T09:55:09.169Z,26.99
2019-03-04T09:56:09.132Z,28.11
2019-03-04T09:57:09.149Z,28.52
2019-03-04T09:58:09.117Z,27.09
2019-03-04T09:59:09.096Z,29.27
2019-03-04T10:00:09.137Z,29.55
2019-03-04T10:01:09.075Z,30.44
2019-03-04T10:02:09.059Z,28.60
2019-03-04T10:03:09.059Z,30.23
2019-03-04T10:04:09.031Z,29.02
2019-03-04T10:05:09.035Z,29.13
2019-03-04T10:06:09.057Z,28.82
2019-03-04T10:07:09.045Z,28.50
2019-03-04T10:08:08.989Z,30.04
2019-03-04T10:09:08.993Z,29.94
2019-03-04T10:10:08.976Z,29.36
2019-03-04T10:11:08.964Z,29.68
2019-03-04T10:12:08.949Z,30.30
2019-03-04T10:13:08.977Z,32.24
2019-03-04T10:14:08.926Z,30.82
2019-03-04T10:15:09.178Z,30.83
2019-03-04T10:16:18.285Z,32.58
2019-03-04T10:17:09.903Z,31.15
2019-03-04T10:18:08.886Z,32.80
2019-03-04T10:19:08.943Z,31.47
2019-03-04T10:20:08.869Z,30.96
2019-03-04T10:21:08.876Z,32.81
2019-03-04T10:22:08.871Z,32.93
2019-03-04T10:23:08.831Z,32.70
2019-03-04T10:24:08.822Z,32.50
2019-03-04T10:25:08.872Z,32.29
2019-03-04T10:26:08.798Z,31.96
2019-03-04T10:27:08.807Z,32.87
2019-03-04T10:28:08.770Z,31.65
2019-03-04T10:29:08.767Z,32.48
2019-03-04T10:30:08.781Z,32.31
2019-03-04T10:31:08.788Z,34.45
2019-03-04T10:32:08.731Z,32.84
2019-03-04T10:33:08.770Z,33.27
2019-03-04T10:34:08.707Z,35.31
2019-03-04T10:35:08.698Z,33.44
2019-03-04T10:36:08.688Z,34.67
2019-03-04T10:37:08.701Z,34.45
2019-03-04T10:38:08.677Z,35.06
2019-03-04T10:39:08.707Z,33.63
2019-03-04T10:40:08.653Z,32.83
2019-03-04T10:41:08.641Z,34.06
2019-03-04T10:42:08.635Z,35.59
2019-03-04T10:43:08.632Z,34.55
2019-03-04T10:44:08.622Z,35.58
2019-03-04T10:45:08.630Z,35.06
2019-03-04T10:46:08.584Z,35.18
2019-03-04T10:47:08.602Z,35.28
2019-03-04T10:48:08.560Z,35.71
2019-03-04T10:49:08.572Z,35.18
2019-03-04T10:50:08.585Z,34.88
2019-03-04T10:51:08.546Z,36.43
2019-03-04T10:52:08.519Z,34.91
2019-03-04T10:53:08.522Z,34.19
2019-03-04T10:54:08.511Z,34.58
2019-03-04T10:55:08.499Z,36.70
2019-03-04T10:56:08.525Z,36.32
2019-03-04T10:57:08.492Z,36.56
2019-03-04T10:58:08.475Z,36.85
2019-03-04T10:59:08.443Z,36.58
2019-03-04T11:00:08.436Z,36.87
2019-03-04T11:01:08.432Z,37.76
2019-03-04T11:02:08.459Z,35.58
2019-03-04T11:03:08.420Z,36.99
2019-03-04T11:04:08.392Z,36.87
2019-03-04T11:05:08.381Z,36.17
2019-03-04T11:06:08.380Z,36.46
2019-03-04T11:07:08.366Z,36.68
2019-03-04T11:08:08.397Z,37.60
2019-03-04T11:09:08.339Z,36.55
2019-03-04T11:10:08.320Z,37.36
2019-03-04T11:11:08.310Z,36.24
2019-03-04T11:12:08.328Z,37.50
2019-03-04T11:13:08.312Z,37.99
2019-03-04T11:14:08.351Z,37.48
2019-03-04T11:15:08.312Z,38.09
2019-03-04T11:16:08.267Z,38.57
2019-03-04T11:17:08.270Z,36.92
2019-03-04T11:18:08.230Z,37.63
2019-03-04T11:19:08.255Z,37.85
2019-03-04T11:20:08.284Z,38.08
2019-03-04T11:21:08.199Z,36.85
2019-03-04T11:22:08.193Z,37.28
2019-03-04T11:23:08.195Z,37.59
2019-03-04T11:24:08.175Z,37.05
2019-03-04T11:25:08.293Z,36.77
2019-03-04T11:26:08.227Z,36.24
2019-03-04T11:27:08.176Z,35.92
2019-03-04T11:28:08.136Z,35.41
2019-03-04T11:29:08.135Z,37.04
2019-03-04T11:30:08.142Z,36.51
2019-03-04T11:31:08.106Z,37.85
2019-03-04T11:32:08.164Z,37.05
2019-03-04T11:33:08.075Z,38.13
2019-03-04T11:34:08.064Z,38.62
2019-03-04T11:35:08.091Z,37.31
2019-03-04T11:36:08.057Z,39.85
2019-03-04T11:37:08.048Z,37.55
2019-03-04T11:38:08.048Z,37.74
2019-03-04T11:39:08.008Z,36.41
2019-03-04T11:40:08.020Z,36.71
2019-03-04T11:41:07.991Z,37.82
2019-03-04T11:42:07.980Z,36.97
2019-03-04T11:43:08.491Z,37.23
2019-03-04T11:44:07.952Z,39.05
2019-03-04T11:45:07.975Z,37.18
2019-03-04T11:46:07.988Z,38.18
2019-03-04T11:47:07.921Z,37.96
2019-03-04T11:48:07.915Z,38.18
2019-03-04T11:49:07.954Z,37.85
2019-03-04T11:50:07.937Z,37.55
2019-03-04T11:51:07.882Z,36.73
2019-03-04T11:52:07.908Z,38.26
2019-03-04T11:53:07.872Z,37.85
2019-03-04T11:54:07.875Z,38.39
2019-03-04T11:55:07.859Z,37.59
2019-03-04T11:56:07.843Z,38.48
2019-03-04T11:57:07.818Z,37.14
2019-03-04T11:58:07.854Z,37.74
2019-03-04T11:59:07.819Z,37.01
2019-03-04T12:00:07.852Z,36.88
2019-03-04T12:01:07.772Z,36.99
2019-03-04T12:02:07.782Z,36.68
2019-03-04T12:03:07.752Z,36.70
2019-03-04T12:04:07.748Z,37.63
2019-03-04T12:05:07.780Z,36.82
2019-03-04T12:06:07.754Z,35.86
2019-03-04T12:07:07.714Z,36.71
2019-03-04T12:08:07.701Z,37.57
2019-03-04T12:09:07.698Z,38.28
2019-03-04T12:10:07.679Z,38.08
2019-03-04T12:11:07.706Z,38.04
2019-03-04T12:12:07.676Z,37.70
2019-03-04T12:13:07.655Z,38.75
2019-03-04T12:14:07.630Z,38.96
2019-03-04T12:15:07.622Z,40.56
2019-03-04T12:16:07.624Z,41.25
2019-03-04T12:17:07.643Z,40.25
2019-03-04T12:18:07.623Z,40.64
2019-03-04T12:19:07.573Z,40.83
2019-03-04T12:20:07.574Z,40.52
2019-03-04T12:21:07.563Z,39.80
2019-03-04T12:22:07.637Z,38.80
2019-03-04T12:23:07.587Z,39.23
2019-03-04T12:24:07.593Z,40.45
2019-03-04T12:25:07.511Z,40.66
2019-03-04T12:26:07.520Z,40.25
2019-03-04T12:27:07.488Z,40.56
2019-03-04T12:28:07.486Z,42.11
2019-03-04T12:29:07.521Z,42.34
2019-03-04T12:30:07.529Z,41.31
2019-03-04T12:31:07.447Z,41.72
2019-03-04T12:32:07.446Z,42.05
2019-03-04T12:33:07.461Z,42.79
2019-03-04T12:34:07.430Z,41.46
2019-03-04T12:35:07.469Z,41.97
2019-03-04T12:36:07.437Z,42.91
2019-03-04T12:37:07.432Z,42.83
2019-03-04T12:38:07.440Z,43.26
2019-03-04T12:39:07.354Z,43.16
2019-03-04T12:40:07.361Z,43.96
2019-03-04T12:41:07.345Z,43.85
2019-03-04T12:42:07.324Z,43.98
2019-03-04T12:43:07.347Z,44.18
2019-03-04T12:44:07.349Z,43.87
2019-03-04T12:45:07.300Z,44.70
2019-03-04T12:46:07.294Z,44.70
2019-03-04T12:47:07.295Z,44.47
2019-03-04T12:48:07.261Z,44.70
2019-03-04T12:49:07.322Z,44.10
2019-03-04T12:50:07.235Z,45.01
2019-03-04T12:51:07.230Z,45.01
2019-03-04T12:52:07.216Z,44.08